Time,TemperatureF,DewpointF,PressureIn,WindDirection,WindDirectionDegrees,WindSpeedMPH,WindSpeedGustMPH,Humidity,HourlyPrecipIn,Conditions,Clouds,dailyrainin,SoftwareType,DateUTC
2013-02-15 00:09:00,26.6,21.3,29.67,North,-999,-999.0,-999.0,80,-99.99,,,-99.99,tws,2013-02-15 07:09:00,
2013-02-15 00:19:00,26.5,21.2,29.67,North,-999,-999.0,-999.0,79,-99.99,,,-99.99,tws,2013-02-15 07:19:00,
2013-02-15 00:29:00,26.1,20.3,29.67,North,-999,-999.0,-999.0,78,-99.99,,,-99.99,tws,2013-02-15 07:29:00,
2013-02-15 00:39:00,25.7,20.4,29.67,North,-999,-999.0,-999.0,80,-99.99,,,-99.99,tws,2013-02-15 07:39:00,
2013-02-15 00:49:00,25.4,19.9,29.67,North,-999,-999.0,-999.0,79,-99.99,,,-99.99,tws,2013-02-15 07:49:00,
2013-02-15 00:59:00,25.0,19.4,29.67,North,-999,-999.0,-999.0,79,-99.99,,,-99.99,tws,2013-02-15 07:59:00,
2013-02-15 01:09:00,24.8,19.0,29.68,North,-999,-999.0,-999.0,78,-99.99,,,-99.99,tws,2013-02-15 08:09:00,
2013-02-15 01:19:00,24.8,19.0,29.67,North,-999,-999.0,-999.0,78,-99.99,,,-99.99,tws,2013-02-15 08:19:00,
2013-02-15 01:29:00,24.5,18.5,29.67,North,-999,-999.0,-999.0,77,-99.99,,,-99.99,tws,2013-02-15 08:29:00,
2013-02-15 01:39:00,24.5,18.5,29.67,North,-999,-999.0,-999.0,77,-99.99,,,-99.99,tws,2013-02-15 08:39:00,
2013-02-15 01:49:00,24.5,18.4,29.67,North,-999,-999.0,-999.0,77,-99.99,,,-99.99,tws,2013-02-15 08:49:00,
2013-02-15 01:59:00,24.1,18.2,29.67,North,-999,-999.0,-999.0,78,-99.99,,,-99.99,tws,2013-02-15 08:59:00,
2013-02-15 02:09:00,24.0,18.2,29.67,North,-999,-999.0,-999.0,78,-99.99,,,-99.99,tws,2013-02-15 09:09:00,
2013-02-15 02:19:00,23.7,18.0,29.66,North,-999,-999.0,-999.0,78,-99.99,,,-99.99,tws,2013-02-15 09:19:00,
2013-02-15 02:29:00,23.6,18.0,29.66,North,-999,-999.0,-999.0,78,-99.99,,,-99.99,tws,2013-02-15 09:29:00,
2013-02-15 02:39:00,24.0,18.3,29.66,North,-999,-999.0,-999.0,78,-99.99,,,-99.99,tws,2013-02-15 09:39:00,
2013-02-15 02:49:00,23.3,17.9,29.66,North,-999,-999.0,-999.0,79,-99.99,,,-99.99,tws,2013-02-15 09:49:00,
2013-02-15 02:59:00,22.6,17.5,29.66,North,-999,-999.0,-999.0,80,-99.99,,,-99.99,tws,2013-02-15 09:59:00,
2013-02-15 03:09:00,22.6,17.5,29.66,North,-999,-999.0,-999.0,80,-99.99,,,-99.99,tws,2013-02-15 10:09:00,
2013-02-15 03:19:00,22.8,17.5,29.65,North,-999,-999.0,-999.0,79,-99.99,,,-99.99,tws,2013-02-15 10:19:00,
2013-02-15 03:29:00,22.6,17.2,29.65,North,-999,-999.0,-999.0,79,-99.99,,,-99.99,tws,2013-02-15 10:29:00,
2013-02-15 03:39:00,22.3,16.6,29.65,North,-999,-999.0,-999.0,78,-99.99,,,-99.99,tws,2013-02-15 10:39:00,
2013-02-15 03:49:00,22.5,16.6,29.65,North,-999,-999.0,-999.0,77,-99.99,,,-99.99,tws,2013-02-15 10:49:00,
2013-02-15 03:59:00,22.4,16.3,29.64,North,-999,-999.0,-999.0,77,-99.99,,,-99.99,tws,2013-02-15 10:59:00,
2013-02-15 04:09:00,22.1,15.9,29.64,North,-999,-999.0,-999.0,77,-99.99,,,-99.99,tws,2013-02-15 11:09:00,
2013-02-15 04:19:00,22.1,15.7,29.64,North,-999,-999.0,-999.0,76,-99.99,,,-99.99,tws,2013-02-15 11:19:00,
2013-02-15 04:29:00,21.8,15.5,29.64,North,-999,-999.0,-999.0,76,-99.99,,,-99.99,tws,2013-02-15 11:29:00,
2013-02-15 04:39:00,22.1,15.7,29.64,North,-999,-999.0,-999.0,76,-99.99,,,-99.99,tws,2013-02-15 11:39:00,
2013-02-15 04:49:00,22.3,15.7,29.64,North,-999,-999.0,-999.0,75,-99.99,,,-99.99,tws,2013-02-15 11:49:00,
2013-02-15 04:59:00,22.3,15.6,29.64,North,-999,-999.0,-999.0,75,-99.99,,,-99.99,tws,2013-02-15 11:59:00,
2013-02-15 05:09:00,22.2,15.5,29.64,North,-999,-999.0,-999.0,75,-99.99,,,-99.99,tws,2013-02-15 12:09:00,
2013-02-15 05:19:00,22.4,15.8,29.65,North,-999,-999.0,-999.0,75,-99.99,,,-99.99,tws,2013-02-15 12:19:00,
2013-02-15 05:29:00,22.4,15.8,29.65,North,-999,-999.0,-999.0,75,-99.99,,,-99.99,tws,2013-02-15 12:29:00,
2013-02-15 05:39:00,22.8,16.1,29.64,North,-999,-999.0,-999.0,75,-99.99,,,-99.99,tws,2013-02-15 12:39:00,
2013-02-15 05:49:00,23.1,16.3,29.65,North,-999,-999.0,-999.0,75,-99.99,,,-99.99,tws,2013-02-15 12:49:00,
2013-02-15 05:59:00,23.4,17.1,29.65,North,-999,-999.0,-999.0,76,-99.99,,,-99.99,tws,2013-02-15 12:59:00,
2013-02-15 06:09:00,23.3,17.1,29.66,North,-999,-999.0,-999.0,77,-99.99,,,-99.99,tws,2013-02-15 13:09:00,
2013-02-15 06:19:00,23.1,16.9,29.67,North,-999,-999.0,-999.0,77,-99.99,,,-99.99,tws,2013-02-15 13:19:00,
2013-02-15 06:29:00,23.1,16.9,29.67,North,-999,-999.0,-999.0,77,-99.99,,,-99.99,tws,2013-02-15 13:29:00,
2013-02-15 06:39:00,23.2,17.1,29.67,North,-999,-999.0,-999.0,77,-99.99,,,-99.99,tws,2013-02-15 13:39:00,
2013-02-15 06:49:00,23.3,17.1,29.67,North,-999,-999.0,-999.0,77,-99.99,,,-99.99,tws,2013-02-15 13:49:00,
2013-02-15 06:59:00,23.5,17.4,29.67,North,-999,-999.0,-999.0,77,-99.99,,,-99.99,tws,2013-02-15 13:59:00,
2013-02-15 07:09:00,23.3,16.9,29.68,North,-999,-999.0,-999.0,76,-99.99,,,-99.99,tws,2013-02-15 14:09:00,
2013-02-15 07:19:00,23.5,17.2,29.68,North,-999,-999.0,-999.0,76,-99.99,,,-99.99,tws,2013-02-15 14:19:00,
2013-02-15 07:29:00,23.3,17.3,29.68,North,-999,-999.0,-999.0,77,-99.99,,,-99.99,tws,2013-02-15 14:29:00,
2013-02-15 07:39:00,23.4,17.7,29.68,North,-999,-999.0,-999.0,78,-99.99,,,-99.99,tws,2013-02-15 14:39:00,
2013-02-15 07:49:00,23.4,17.5,29.68,North,-999,-999.0,-999.0,77,-99.99,,,-99.99,tws,2013-02-15 14:49:00,
2013-02-15 07:59:00,23.9,17.5,29.68,North,-999,-999.0,-999.0,76,-99.99,,,-99.99,tws,2013-02-15 14:59:00,
2013-02-15 08:09:00,24.7,18.0,29.69,North,-999,-999.0,-999.0,75,-99.99,,,-99.99,tws,2013-02-15 15:09:00,
2013-02-15 08:19:00,25.6,18.4,29.68,North,-999,-999.0,-999.0,74,-99.99,,,-99.99,tws,2013-02-15 15:19:00,
2013-02-15 08:29:00,26.7,19.3,29.68,North,-999,-999.0,-999.0,73,-99.99,,,-99.99,tws,2013-02-15 15:29:00,
2013-02-15 08:39:00,27.4,19.6,29.68,North,-999,-999.0,-999.0,72,-99.99,,,-99.99,tws,2013-02-15 15:39:00,
2013-02-15 08:49:00,27.8,19.6,29.68,North,-999,-999.0,-999.0,71,-99.99,,,-99.99,tws,2013-02-15 15:49:00,
2013-02-15 08:59:00,28.4,19.6,29.68,North,-999,-999.0,-999.0,69,-99.99,,,-99.99,tws,2013-02-15 15:59:00,
2013-02-15 09:09:00,29.2,19.6,29.68,North,-999,-999.0,-999.0,67,-99.99,,,-99.99,tws,2013-02-15 16:09:00,
2013-02-15 09:19:00,29.8,19.9,29.67,North,-999,-999.0,-999.0,66,-99.99,,,-99.99,tws,2013-02-15 16:19:00,
2013-02-15 09:29:00,30.7,20.4,29.68,North,-999,-999.0,-999.0,65,-99.99,,,-99.99,tws,2013-02-15 16:29:00,
2013-02-15 09:39:00,31.5,21.5,29.68,North,-999,-999.0,-999.0,66,-99.99,,,-99.99,tws,2013-02-15 16:39:00,
2013-02-15 09:49:00,31.6,21.8,29.69,North,-999,-999.0,-999.0,66,-99.99,,,-99.99,tws,2013-02-15 16:49:00,
2013-02-15 09:59:00,31.4,21.2,29.69,North,-999,-999.0,-999.0,65,-99.99,,,-99.99,tws,2013-02-15 16:59:00,
2013-02-15 10:09:00,32.1,22.0,29.68,North,-999,-999.0,-999.0,65,-99.99,,,-99.99,tws,2013-02-15 17:09:00,
2013-02-15 10:19:00,32.2,22.4,29.67,North,-999,-999.0,-999.0,66,-99.99,,,-99.99,tws,2013-02-15 17:19:00,
2013-02-15 10:29:00,32.1,22.8,29.67,North,-999,-999.0,-999.0,68,-99.99,,,-99.99,tws,2013-02-15 17:29:00,
2013-02-15 10:39:00,32.8,23.5,29.67,North,-999,-999.0,-999.0,68,-99.99,,,-99.99,tws,2013-02-15 17:39:00,
2013-02-15 10:49:00,33.6,23.7,29.67,North,-999,-999.0,-999.0,66,-99.99,,,-99.99,tws,2013-02-15 17:49:00,
2013-02-15 10:58:00,34.6,23.7,29.67,North,-999,-999.0,-999.0,64,-99.99,,,-99.99,tws,2013-02-15 17:58:00,
2013-02-15 11:09:00,35.5,23.3,29.66,North,-999,-999.0,-999.0,60,-99.99,,,-99.99,tws,2013-02-15 18:09:00,
2013-02-15 11:18:00,36.2,23.5,29.66,North,-999,-999.0,-999.0,59,-99.99,,,-99.99,tws,2013-02-15 18:18:00,
2013-02-15 11:28:00,36.7,23.8,29.66,North,-999,-999.0,-999.0,59,-99.99,,,-99.99,tws,2013-02-15 18:28:00,
2013-02-15 11:38:00,37.4,24.0,29.66,North,-999,-999.0,-999.0,58,-99.99,,,-99.99,tws,2013-02-15 18:38:00,
2013-02-15 11:48:00,38.0,23.5,29.66,North,-999,-999.0,-999.0,55,-99.99,,,-99.99,tws,2013-02-15 18:48:00,
2013-02-15 11:58:00,38.5,23.5,29.66,North,-999,-999.0,-999.0,54,-99.99,,,-99.99,tws,2013-02-15 18:58:00,
2013-02-15 12:09:00,38.8,24.3,29.66,North,-999,-999.0,-999.0,55,-99.99,,,-99.99,tws,2013-02-15 19:09:00,
2013-02-15 12:19:00,38.8,23.8,29.66,North,-999,-999.0,-999.0,54,-99.99,,,-99.99,tws,2013-02-15 19:19:00,
2013-02-15 12:29:00,39.0,23.7,29.66,North,-999,-999.0,-999.0,53,-99.99,,,-99.99,tws,2013-02-15 19:29:00,
2013-02-15 12:39:00,39.3,24.5,29.66,North,-999,-999.0,-999.0,55,-99.99,,,-99.99,tws,2013-02-15 19:39:00,
2013-02-15 12:49:00,39.4,23.8,29.65,North,-999,-999.0,-999.0,53,-99.99,,,-99.99,tws,2013-02-15 19:49:00,
2013-02-15 12:59:00,39.8,23.8,29.65,North,-999,-999.0,-999.0,52,-99.99,,,-99.99,tws,2013-02-15 19:59:00,
2013-02-15 13:09:00,40.1,23.2,29.65,North,-999,-999.0,-999.0,50,-99.99,,,-99.99,tws,2013-02-15 20:09:00,
2013-02-15 13:19:00,40.1,22.3,29.64,North,-999,-999.0,-999.0,48,-99.99,,,-99.99,tws,2013-02-15 20:19:00,
2013-02-15 13:29:00,40.5,22.2,29.64,North,-999,-999.0,-999.0,47,-99.99,,,-99.99,tws,2013-02-15 20:29:00,
2013-02-15 13:39:00,40.5,21.9,29.64,North,-999,-999.0,-999.0,47,-99.99,,,-99.99,tws,2013-02-15 20:39:00,
2013-02-15 13:49:00,40.9,21.8,29.63,North,-999,-999.0,-999.0,46,-99.99,,,-99.99,tws,2013-02-15 20:49:00,
2013-02-15 13:59:00,41.2,23.5,29.63,North,-999,-999.0,-999.0,48,-99.99,,,-99.99,tws,2013-02-15 20:59:00,
2013-02-15 14:09:00,41.4,24.4,29.64,North,-999,-999.0,-999.0,50,-99.99,,,-99.99,tws,2013-02-15 21:09:00,
2013-02-15 14:19:00,41.7,24.8,29.64,North,-999,-999.0,-999.0,50,-99.99,,,-99.99,tws,2013-02-15 21:19:00,
2013-02-15 14:29:00,41.7,25.2,29.64,North,-999,-999.0,-999.0,51,-99.99,,,-99.99,tws,2013-02-15 21:29:00,
2013-02-15 14:39:00,41.9,18.9,29.64,North,-999,-999.0,-999.0,39,-99.99,,,-99.99,tws,2013-02-15 21:39:00,
2013-02-15 14:49:00,42.3,-99.9,29.64,North,-999,-999.0,-999.0,-999,-99.99,,,-99.99,tws,2013-02-15 21:49:00,
2013-02-15 14:59:00,42.2,17.0,29.64,North,-999,-999.0,-999.0,35,-99.99,,,-99.99,tws,2013-02-15 21:59:00,
2013-02-15 15:09:00,41.8,-99.9,29.64,North,-999,-999.0,-999.0,-999,-99.99,,,-99.99,tws,2013-02-15 22:09:00,
2013-02-15 15:19:00,42.2,-99.9,29.64,North,-999,-999.0,-999.0,-999,-99.99,,,-99.99,tws,2013-02-15 22:19:00,
2013-02-15 15:29:00,42.2,-99.9,29.64,North,-999,-999.0,-999.0,-999,-99.99,,,-99.99,tws,2013-02-15 22:29:00,
2013-02-15 15:39:00,42.2,-99.9,29.64,North,-999,-999.0,-999.0,-999,-99.99,,,-99.99,tws,2013-02-15 22:39:00,
2013-02-15 15:49:00,42.0,-99.9,29.64,North,-999,-999.0,-999.0,-999,-99.99,,,-99.99,tws,2013-02-15 22:49:00,
2013-02-15 15:59:00,42.0,-99.9,29.64,North,-999,-999.0,-999.0,-999,-99.99,,,-99.99,tws,2013-02-15 22:59:00,
2013-02-15 16:09:00,42.0,-99.9,29.64,North,-999,-999.0,-999.0,-999,-99.99,,,-99.99,tws,2013-02-15 23:09:00,
2013-02-15 16:19:00,42.3,-99.9,29.64,North,-999,-999.0,-999.0,-999,-99.99,,,-99.99,tws,2013-02-15 23:19:00,
2013-02-15 16:29:00,41.7,-99.9,29.64,North,-999,-999.0,-999.0,-999,-99.99,,,-99.99,tws,2013-02-15 23:29:00,
2013-02-15 16:39:00,41.2,-99.9,29.64,North,-999,-999.0,-999.0,-999,-99.99,,,-99.99,tws,2013-02-15 23:39:00,
2013-02-15 16:49:00,41.2,-99.9,29.65,North,-999,-999.0,-999.0,-999,-99.99,,,-99.99,tws,2013-02-15 23:49:00,
2013-02-15 16:59:00,41.0,-99.9,29.65,North,-999,-999.0,-999.0,-999,-99.99,,,-99.99,tws,2013-02-15 23:59:00,
2013-02-15 17:09:00,40.0,-99.9,29.65,North,-999,-999.0,-999.0,-999,-99.99,,,-99.99,tws,2013-02-16 00:09:00,
2013-02-15 17:19:00,39.3,-99.9,29.66,North,-999,-999.0,-999.0,-999,-99.99,,,-99.99,tws,2013-02-16 00:19:00,
2013-02-15 17:29:00,39.2,-99.9,29.66,North,-999,-999.0,-999.0,-999,-99.99,,,-99.99,tws,2013-02-16 00:29:00,
2013-02-15 17:39:00,38.8,-99.9,29.66,North,-999,-999.0,-999.0,-999,-99.99,,,-99.99,tws,2013-02-16 00:39:00,
2013-02-15 17:49:00,38.5,-99.9,29.66,North,-999,-999.0,-999.0,-999,-99.99,,,-99.99,tws,2013-02-16 00:49:00,
2013-02-15 17:59:00,38.0,-99.9,29.66,North,-999,-999.0,-999.0,-999,-99.99,,,-99.99,tws,2013-02-16 00:59:00,
2013-02-15 18:09:00,37.1,-99.9,29.66,North,-999,-999.0,-999.0,-999,-99.99,,,-99.99,tws,2013-02-16 01:09:00,
2013-02-15 18:19:00,36.0,-99.9,29.66,North,-999,-999.0,-999.0,-999,-99.99,,,-99.99,tws,2013-02-16 01:19:00,
2013-02-15 18:29:00,35.3,-99.9,29.66,North,-999,-999.0,-999.0,-999,-99.99,,,-99.99,tws,2013-02-16 01:29:00,
2013-02-15 18:39:00,35.0,-99.9,29.67,North,-999,-999.0,-999.0,-999,-99.99,,,-99.99,tws,2013-02-16 01:39:00,
2013-02-15 18:49:00,35.1,-99.9,29.67,North,-999,-999.0,-999.0,-999,-99.99,,,-99.99,tws,2013-02-16 01:49:00,
2013-02-15 18:59:00,34.7,-99.9,29.67,North,-999,-999.0,-999.0,-999,-99.99,,,-99.99,tws,2013-02-16 01:59:00,
2013-02-15 19:09:00,34.6,-99.9,29.67,North,-999,-999.0,-999.0,-999,-99.99,,,-99.99,tws,2013-02-16 02:09:00,
2013-02-15 19:19:00,34.4,-99.9,29.67,North,-999,-999.0,-999.0,-999,-99.99,,,-99.99,tws,2013-02-16 02:19:00,
2013-02-15 19:29:00,33.3,-99.9,29.68,North,-999,-999.0,-999.0,-999,-99.99,,,-99.99,tws,2013-02-16 02:29:00,
2013-02-15 19:39:00,32.1,-99.9,29.68,North,-999,-999.0,-999.0,-999,-99.99,,,-99.99,tws,2013-02-16 02:39:00,
2013-02-15 19:49:00,31.9,-99.9,29.68,North,-999,-999.0,-999.0,-999,-99.99,,,-99.99,tws,2013-02-16 02:49:00,
2013-02-15 19:59:00,31.7,-99.9,29.67,North,-999,-999.0,-999.0,-999,-99.99,,,-99.99,tws,2013-02-16 02:59:00,
2013-02-15 20:09:00,31.7,-99.9,29.67,North,-999,-999.0,-999.0,-999,-99.99,,,-99.99,tws,2013-02-16 03:09:00,
2013-02-15 20:19:00,31.9,-99.9,29.67,North,-999,-999.0,-999.0,-999,-99.99,,,-99.99,tws,2013-02-16 03:19:00,
2013-02-15 20:29:00,31.8,-99.9,29.67,North,-999,-999.0,-999.0,-999,-99.99,,,-99.99,tws,2013-02-16 03:29:00,
2013-02-15 20:39:00,32.1,-99.9,29.66,North,-999,-999.0,-999.0,-999,-99.99,,,-99.99,tws,2013-02-16 03:39:00,
2013-02-15 20:49:00,31.7,-99.9,29.66,North,-999,-999.0,-999.0,-999,-99.99,,,-99.99,tws,2013-02-16 03:49:00,
2013-02-15 20:59:00,31.2,-99.9,29.66,North,-999,-999.0,-999.0,-999,-99.99,,,-99.99,tws,2013-02-16 03:59:00,
2013-02-15 21:09:00,30.9,-99.9,29.66,North,-999,-999.0,-999.0,-999,-99.99,,,-99.99,tws,2013-02-16 04:09:00,
2013-02-15 21:19:00,31.0,-99.9,29.66,North,-999,-999.0,-999.0,-999,-99.99,,,-99.99,tws,2013-02-16 04:19:00,
2013-02-15 21:29:00,30.6,-99.9,29.65,North,-999,-999.0,-999.0,-999,-99.99,,,-99.99,tws,2013-02-16 04:29:00,
2013-02-15 21:39:00,30.4,-99.9,29.66,North,-999,-999.0,-999.0,-999,-99.99,,,-99.99,tws,2013-02-16 04:39:00,
2013-02-15 21:49:00,30.3,-99.9,29.66,North,-999,-999.0,-999.0,-999,-99.99,,,-99.99,tws,2013-02-16 04:49:00,
2013-02-15 21:59:00,30.2,-99.9,29.65,North,-999,-999.0,-999.0,-999,-99.99,,,-99.99,tws,2013-02-16 04:59:00,
2013-02-15 22:09:00,30.1,-99.9,29.64,North,-999,-999.0,-999.0,-999,-99.99,,,-99.99,tws,2013-02-16 05:09:00,
2013-02-15 22:19:00,30.0,-99.9,29.64,North,-999,-999.0,-999.0,-999,-99.99,,,-99.99,tws,2013-02-16 05:19:00,
2013-02-15 22:29:00,30.1,-99.9,29.63,North,-999,-999.0,-999.0,-999,-99.99,,,-99.99,tws,2013-02-16 05:29:00,
2013-02-15 22:39:00,30.2,-99.9,29.63,North,-999,-999.0,-999.0,-999,-99.99,,,-99.99,tws,2013-02-16 05:39:00,
2013-02-15 22:49:00,30.2,-99.9,29.63,North,-999,-999.0,-999.0,-999,-99.99,,,-99.99,tws,2013-02-16 05:49:00,
2013-02-15 22:59:00,29.9,-99.9,29.63,North,-999,-999.0,-999.0,-999,-99.99,,,-99.99,tws,2013-02-16 05:59:00,
2013-02-15 23:09:00,29.6,-99.9,29.63,North,-999,-999.0,-999.0,-999,-99.99,,,-99.99,tws,2013-02-16 06:09:00,
2013-02-15 23:19:00,29.4,-99.9,29.62,North,-999,-999.0,-999.0,-999,-99.99,,,-99.99,tws,2013-02-16 06:19:00,
2013-02-15 23:29:00,29.1,-99.9,29.62,North,-999,-999.0,-999.0,-999,-99.99,,,-99.99,tws,2013-02-16 06:29:00,
2013-02-15 23:39:00,29.0,-99.9,29.61,North,-999,-999.0,-999.0,-999,-99.99,,,-99.99,tws,2013-02-16 06:39:00,
2013-02-15 23:49:00,28.7,-99.9,29.61,North,-999,-999.0,-999.0,-999,-99.99,,,-99.99,tws,2013-02-16 06:49:00,
2013-02-15 23:59:00,28.6,20.4,29.60,North,-999,-999.0,-999.0,72,-99.99,,,-99.99,tws,2013-02-16 06:59:00,